createdAt,value
2018-05-07T00:01:13.753Z,2.03
2018-05-07T00:03:41.391Z,2.10
2018-05-07T00:06:08.982Z,1.80
2018-05-07T00:08:36.609Z,2.15
2018-05-07T00:11:03.976Z,2.10
2018-05-07T00:13:31.326Z,2.67
2018-05-07T00:15:58.679Z,2.20
2018-05-07T00:18:26.015Z,2.42
2018-05-07T00:20:53.362Z,2.25
2018-05-07T00:23:20.954Z,2.10
2018-05-07T00:25:48.246Z,2.30
2018-05-07T00:28:15.541Z,2.10
2018-05-07T00:30:42.889Z,2.00
2018-05-07T00:33:10.333Z,2.17
2018-05-07T00:35:37.930Z,2.30
2018-05-07T00:38:05.255Z,2.20
2018-05-07T00:40:32.847Z,2.20
2018-05-07T00:43:00.163Z,2.00
2018-05-07T00:45:27.461Z,2.10
2018-05-07T00:47:55.118Z,2.08
2018-05-07T00:50:22.421Z,1.95
2018-05-07T00:52:49.782Z,2.10
2018-05-07T00:55:22.302Z,1.98
2018-05-07T00:57:49.607Z,1.90
2018-05-07T01:00:17.217Z,2.10
2018-05-07T01:02:44.545Z,1.90
2018-05-07T01:05:11.852Z,2.10
2018-05-07T01:07:39.175Z,2.37
2018-05-07T01:10:06.715Z,1.95
2018-05-07T01:12:34.099Z,2.35
2018-05-07T01:15:01.402Z,2.10
2018-05-07T01:17:28.769Z,2.50
2018-05-07T01:19:56.085Z,2.10
2018-05-07T01:22:23.426Z,2.20
2018-05-07T01:24:50.783Z,2.10
2018-05-07T01:27:18.081Z,2.05
2018-05-07T01:29:45.686Z,2.42
2018-05-07T01:32:13.019Z,2.00
2018-05-07T01:34:40.383Z,2.20
2018-05-07T01:37:07.740Z,2.35
2018-05-07T01:39:35.084Z,2.35
2018-05-07T01:42:02.418Z,2.08
2018-05-07T01:44:29.783Z,2.25
2018-05-07T01:46:57.141Z,2.20
2018-05-07T01:49:24.470Z,2.10
2018-05-07T01:51:51.802Z,2.53
2018-05-07T01:54:19.139Z,2.17
2018-05-07T01:56:46.689Z,2.25
2018-05-07T01:59:14.027Z,2.40
2018-05-07T02:01:41.356Z,2.50
2018-05-07T02:04:08.698Z,2.10
2018-05-07T02:06:35.997Z,2.20
2018-05-07T02:09:03.679Z,2.42
2018-05-07T02:11:31.234Z,2.30
2018-05-07T02:13:58.893Z,2.40
2018-05-07T02:16:26.562Z,2.30
2018-05-07T02:18:53.864Z,2.50
2018-05-07T02:21:21.208Z,2.30
2018-05-07T02:23:49.202Z,2.28
2018-05-07T02:26:16.546Z,2.58
2018-05-07T02:28:44.155Z,2.53
2018-05-07T02:31:11.487Z,2.28
2018-05-07T02:33:39.066Z,2.60
2018-05-07T02:36:06.399Z,2.30
2018-05-07T02:38:33.719Z,2.50
2018-05-07T02:41:01.052Z,2.37
2018-05-07T02:43:28.359Z,2.20
2018-05-07T02:45:55.693Z,2.00
2018-05-07T02:48:23.307Z,2.40
2018-05-07T02:50:50.859Z,2.30
2018-05-07T02:53:18.187Z,2.23
2018-05-07T02:55:45.524Z,2.50
2018-05-07T02:58:12.891Z,2.37
2018-05-07T03:00:40.494Z,2.55
2018-05-07T03:03:07.839Z,2.35
2018-05-07T03:05:35.510Z,2.60
2018-05-07T03:08:02.826Z,2.50
2018-05-07T03:10:30.428Z,2.70
2018-05-07T03:12:57.727Z,2.55
2018-05-07T03:15:25.108Z,2.40
2018-05-07T03:17:52.439Z,2.40
2018-05-07T03:20:20.047Z,2.47
2018-05-07T03:22:47.713Z,2.80
2018-05-07T03:25:15.014Z,2.62
2018-05-07T03:27:42.367Z,2.40
2018-05-07T03:30:09.737Z,2.92
2018-05-07T03:32:37.334Z,2.60
2018-05-07T03:35:04.999Z,2.90
2018-05-07T03:37:32.335Z,2.70
2018-05-07T03:39:59.657Z,2.70
2018-05-07T03:42:27.271Z,3.00
2018-05-07T03:44:54.570Z,2.50
2018-05-07T03:47:22.122Z,2.70
2018-05-07T03:49:49.741Z,2.70
2018-05-07T03:52:17.407Z,3.00
2018-05-07T03:54:44.758Z,2.60
2018-05-07T03:57:12.069Z,2.70
2018-05-07T03:59:39.437Z,2.90
2018-05-07T04:02:06.714Z,2.90
2018-05-07T04:04:34.111Z,3.10
2018-05-07T04:07:01.418Z,2.60
2018-05-07T04:09:28.755Z,2.70
2018-05-07T04:11:56.096Z,2.83
2018-05-07T04:14:23.707Z,2.53
2018-05-07T04:16:56.931Z,2.75
2018-05-07T04:19:30.174Z,2.70
2018-05-07T04:22:03.587Z,2.80
2018-05-07T04:24:30.974Z,2.67
2018-05-07T04:26:58.612Z,2.67
2018-05-07T04:29:26.271Z,2.70
2018-05-07T04:31:53.825Z,2.70
2018-05-07T04:34:21.145Z,3.00
2018-05-07T04:36:48.749Z,3.03
2018-05-07T04:39:16.042Z,3.00
2018-05-07T04:41:43.657Z,3.00
2018-05-07T04:44:10.953Z,2.90
2018-05-07T04:46:38.310Z,3.58
2018-05-07T04:49:05.618Z,4.10
2018-05-07T04:51:33.177Z,3.40
2018-05-07T04:54:00.758Z,3.42
2018-05-07T04:56:28.297Z,3.40
2018-05-07T04:58:55.866Z,3.50
2018-05-07T05:01:23.222Z,3.20
2018-05-07T05:03:50.559Z,3.80
2018-05-07T05:06:17.930Z,3.45
2018-05-07T05:08:45.178Z,3.35
2018-05-07T05:11:12.534Z,3.30
2018-05-07T05:13:39.838Z,3.50
2018-05-07T05:16:07.208Z,3.45
2018-05-07T05:18:34.806Z,3.40
2018-05-07T05:21:02.457Z,3.80
2018-05-07T05:23:29.709Z,3.70
2018-05-07T05:25:57.045Z,3.78
2018-05-07T05:28:24.382Z,3.57
2018-05-07T05:30:51.999Z,3.67
2018-05-07T05:33:19.362Z,3.87
2018-05-07T05:35:47.036Z,3.63
2018-05-07T05:38:14.404Z,4.00
2018-05-07T05:40:41.726Z,3.60
2018-05-07T05:43:09.070Z,3.90
2018-05-07T05:45:36.631Z,3.28
2018-05-07T05:48:04.197Z,3.55
2018-05-07T05:50:31.555Z,3.20
2018-05-07T05:52:58.854Z,3.60
2018-05-07T05:55:26.472Z,3.80
2018-05-07T05:57:53.844Z,3.50
2018-05-07T06:00:21.487Z,3.40
2018-05-07T06:02:48.818Z,3.60
2018-05-07T06:05:16.175Z,3.47
2018-05-07T06:07:43.527Z,3.70
2018-05-07T06:10:10.849Z,3.30
2018-05-07T06:12:38.177Z,3.50
2018-05-07T06:15:05.824Z,3.40
2018-05-07T06:17:33.150Z,3.90
2018-05-07T06:20:00.733Z,3.40
2018-05-07T06:22:28.049Z,3.80
2018-05-07T06:24:55.381Z,3.53
2018-05-07T06:27:22.778Z,3.90
2018-05-07T06:29:50.687Z,3.40
2018-05-07T06:32:18.071Z,3.50
2018-05-07T06:34:45.498Z,3.58
2018-05-07T06:37:12.871Z,3.80
2018-05-07T06:39:40.174Z,3.15
2018-05-07T06:42:07.520Z,3.50
2018-05-07T06:44:34.861Z,3.85
2018-05-07T06:47:02.177Z,3.30
2018-05-07T06:49:29.562Z,3.15
2018-05-07T06:51:56.879Z,3.20
2018-05-07T06:54:24.211Z,3.40
2018-05-07T06:56:51.569Z,2.97
2018-05-07T06:59:19.133Z,3.62
2018-05-07T07:01:46.693Z,3.30
2018-05-07T07:04:14.043Z,3.65
2018-05-07T07:06:41.383Z,3.80
2018-05-07T07:09:08.704Z,3.15
2018-05-07T07:11:36.013Z,3.67
2018-05-07T07:14:03.681Z,3.78
2018-05-07T07:16:31.096Z,3.90
2018-05-07T07:18:58.434Z,3.75
2018-05-07T07:21:25.782Z,3.70
2018-05-07T07:23:53.111Z,3.65
2018-05-07T07:26:20.442Z,3.70
2018-05-07T07:28:47.790Z,3.87
2018-05-07T07:31:15.151Z,3.50
2018-05-07T07:33:42.505Z,3.37
2018-05-07T07:36:10.086Z,3.30
2018-05-07T07:38:37.426Z,3.30
2018-05-07T07:41:04.740Z,3.50
2018-05-07T07:43:32.354Z,3.58
2018-05-07T07:45:59.657Z,3.50
2018-05-07T07:48:26.999Z,3.58
2018-05-07T07:50:54.619Z,3.45
2018-05-07T07:53:21.962Z,3.00
2018-05-07T07:55:49.317Z,3.50
2018-05-07T07:58:16.897Z,3.80
2018-05-07T08:03:18.367Z,4.30
2018-05-07T08:05:45.707Z,3.63
2018-05-07T08:08:13.044Z,3.77
2018-05-07T08:10:40.354Z,3.47
2018-05-07T08:13:07.991Z,3.70
2018-05-07T08:15:35.314Z,3.45
2018-05-07T08:18:02.838Z,3.80
2018-05-07T08:20:30.207Z,3.30
2018-05-07T08:22:57.548Z,3.17
2018-05-07T08:25:24.878Z,3.00
2018-05-07T08:27:52.526Z,3.37
2018-05-07T08:30:20.087Z,2.90
2018-05-07T08:32:47.439Z,2.72
2018-05-07T08:35:15.107Z,2.70
2018-05-07T08:37:42.413Z,2.10
2018-05-07T08:40:09.729Z,2.03
2018-05-07T08:42:37.027Z,2.40
2018-05-07T08:45:04.366Z,2.30
2018-05-07T08:47:31.701Z,2.53
2018-05-07T08:49:59.346Z,2.10
2018-05-07T08:52:26.998Z,2.00
2018-05-07T08:54:54.667Z,2.40
2018-05-07T08:57:22.331Z,2.00
2018-05-07T08:59:49.882Z,2.10
2018-05-07T09:02:17.346Z,2.20
2018-05-07T09:04:44.542Z,2.28
2018-05-07T09:07:11.846Z,2.30
2018-05-07T09:09:39.219Z,2.30
2018-05-07T09:12:06.531Z,2.40
2018-05-07T09:14:34.118Z,2.60
2018-05-07T09:17:01.781Z,2.20
2018-05-07T09:19:29.447Z,2.97
2018-05-07T09:21:56.767Z,2.10
2018-05-07T09:24:24.107Z,2.40
2018-05-07T09:26:51.406Z,2.30
2018-05-07T09:29:18.730Z,2.30
2018-05-07T09:31:46.034Z,2.30
2018-05-07T09:34:13.394Z,2.10
2018-05-07T09:36:40.690Z,2.33
2018-05-07T09:39:08.293Z,2.00
2018-05-07T09:41:35.606Z,2.33
2018-05-07T09:44:02.914Z,2.37
2018-05-07T09:46:30.267Z,2.40
2018-05-07T09:48:57.597Z,3.83
2018-05-07T09:51:25.269Z,2.60
2018-05-07T09:53:52.935Z,2.60
2018-05-07T09:56:20.595Z,2.40
2018-05-07T09:58:53.744Z,2.30
2018-05-07T10:01:21.050Z,1.90
2018-05-07T10:03:48.697Z,2.30
2018-05-07T10:06:16.363Z,1.77
2018-05-07T10:08:43.668Z,2.03
2018-05-07T10:11:10.986Z,2.20
2018-05-07T10:13:38.285Z,2.30
2018-05-07T10:16:05.623Z,2.30
2018-05-07T10:18:32.971Z,2.00
2018-05-07T10:21:00.278Z,2.90
2018-05-07T10:23:27.955Z,2.00
2018-05-07T10:25:55.719Z,2.10
2018-05-07T10:28:23.025Z,2.42
2018-05-07T10:30:50.426Z,2.10
2018-05-07T10:33:17.983Z,2.33
2018-05-07T10:35:45.353Z,2.00
2018-05-07T10:38:12.898Z,2.00
2018-05-07T10:40:40.232Z,1.92
2018-05-07T10:43:07.587Z,1.92
2018-05-07T10:45:34.923Z,2.10
2018-05-07T10:48:02.298Z,2.00
2018-05-07T10:50:29.648Z,1.90
2018-05-07T10:52:56.978Z,1.80
2018-05-07T10:55:24.301Z,1.80
2018-05-07T10:57:51.650Z,1.60
2018-05-07T11:00:19.302Z,1.80
2018-05-07T11:02:46.966Z,2.00
2018-05-07T11:05:14.287Z,1.77
2018-05-07T11:07:41.598Z,1.70
2018-05-07T11:10:09.238Z,2.00
2018-05-07T11:12:36.606Z,1.90
2018-05-07T11:15:03.916Z,2.10
2018-05-07T11:17:31.512Z,2.00
2018-05-07T11:19:58.877Z,2.00
2018-05-07T11:22:26.439Z,1.83
2018-05-07T11:24:53.811Z,2.00
2018-05-07T11:27:21.337Z,2.10
2018-05-07T11:29:48.916Z,1.90
2018-05-07T11:32:16.266Z,1.85
2018-05-07T11:34:43.914Z,2.03
2018-05-07T11:37:11.284Z,1.92
2018-05-07T11:39:38.602Z,1.90
2018-05-07T11:42:05.953Z,1.90
2018-05-07T11:44:33.371Z,1.90
2018-05-07T11:47:00.715Z,2.07
2018-05-07T11:49:28.103Z,1.60
2018-05-07T11:51:55.443Z,1.53
2018-05-07T11:54:23.015Z,1.90
2018-05-07T11:56:50.371Z,1.60
2018-05-07T11:59:17.912Z,1.65
2018-05-07T12:01:45.243Z,1.40
2018-05-07T12:04:12.606Z,1.65
2018-05-07T12:06:39.939Z,1.60
2018-05-07T12:09:07.308Z,1.60
2018-05-07T12:11:34.629Z,1.30
2018-05-07T12:14:01.986Z,1.55
2018-05-07T12:16:29.298Z,1.80
2018-05-07T12:18:56.617Z,1.80
2018-05-07T12:21:23.929Z,1.50
2018-05-07T12:23:51.291Z,1.77
2018-05-07T12:26:18.614Z,1.70
2018-05-07T12:28:45.918Z,1.60
2018-05-07T12:31:13.279Z,1.80
2018-05-07T12:33:40.616Z,1.65
2018-05-07T12:36:07.949Z,1.50
2018-05-07T12:40:01.106Z,1.40
2018-05-07T12:42:28.726Z,1.45
2018-05-07T12:44:56.033Z,1.40
2018-05-07T12:47:23.368Z,1.60
2018-05-07T12:49:50.678Z,1.40
2018-05-07T12:52:18.016Z,1.55
2018-05-07T12:54:45.394Z,1.50
2018-05-07T12:57:12.834Z,1.60
2018-05-07T12:59:40.418Z,1.50
2018-05-07T13:02:07.763Z,1.50
2018-05-07T13:04:35.443Z,1.60
2018-05-07T13:07:05.494Z,1.50
2018-05-07T13:09:32.823Z,1.75
2018-05-07T13:12:00.151Z,1.30
2018-05-07T13:14:27.491Z,1.40
2018-05-07T13:16:55.084Z,1.40
2018-05-07T13:19:22.439Z,1.60
2018-05-07T13:21:49.788Z,2.90
2018-05-07T13:24:17.350Z,6.85
2018-05-07T13:26:44.677Z,3.20
2018-05-07T13:29:12.019Z,4.70
2018-05-07T13:31:39.379Z,2.50
2018-05-07T13:34:06.673Z,3.30
2018-05-07T13:36:34.226Z,2.20
2018-05-07T13:39:01.549Z,2.57
2018-05-07T13:41:28.863Z,2.47
2018-05-07T13:43:56.235Z,1.90
2018-05-07T13:46:23.914Z,2.67
2018-05-07T13:48:51.239Z,1.80
2018-05-07T13:51:18.595Z,1.70
2018-05-07T13:53:45.932Z,3.30
2018-05-07T13:56:13.249Z,3.42
2018-05-07T13:58:40.603Z,3.58
2018-05-07T14:01:07.931Z,3.20
2018-05-07T14:03:35.254Z,1.80
2018-05-07T14:06:02.588Z,2.40
2018-05-07T14:08:29.973Z,2.00
2018-05-07T14:10:57.335Z,2.10
2018-05-07T14:13:24.894Z,2.30
2018-05-07T14:15:52.532Z,1.90
2018-05-07T14:18:19.832Z,1.60
2018-05-07T14:20:47.448Z,2.20
2018-05-07T14:23:14.742Z,1.50
2018-05-07T14:25:42.061Z,1.77
2018-05-07T14:28:09.715Z,1.80
2018-05-07T14:30:37.014Z,1.90
2018-05-07T14:33:04.323Z,1.90
2018-05-07T14:35:31.675Z,1.90
2018-05-07T14:37:59.015Z,1.90
2018-05-07T14:40:26.327Z,1.80
2018-05-07T14:42:53.666Z,1.90
2018-05-07T14:45:20.999Z,1.62
2018-05-07T14:47:48.332Z,1.80
2018-05-07T14:50:15.919Z,1.58
2018-05-07T14:52:43.574Z,1.90
2018-05-07T14:55:10.915Z,1.60
2018-05-07T14:57:38.225Z,1.42
2018-05-07T15:00:05.847Z,1.60
2018-05-07T15:02:33.256Z,2.00
2018-05-07T15:05:00.862Z,1.80
2018-05-07T15:07:28.195Z,1.62
2018-05-07T15:09:55.587Z,1.60
2018-05-07T15:12:22.930Z,1.80
2018-05-07T15:14:50.298Z,1.48
2018-05-07T15:17:17.947Z,1.62
2018-05-07T15:19:45.299Z,1.80
2018-05-07T15:22:12.643Z,1.60
2018-05-07T15:24:45.708Z,1.65
2018-05-07T15:27:13.076Z,2.00
2018-05-07T15:29:40.389Z,1.50
2018-05-07T15:32:07.682Z,1.77
2018-05-07T15:34:35.039Z,1.60
2018-05-07T15:37:02.390Z,1.70
2018-05-07T15:39:29.714Z,1.70
2018-05-07T15:41:57.048Z,1.50
2018-05-07T15:44:24.379Z,1.92
2018-05-07T15:46:52.119Z,1.60
2018-05-07T15:49:19.505Z,1.70
2018-05-07T15:51:46.818Z,1.75
2018-05-07T15:54:14.419Z,1.87
2018-05-07T15:56:41.784Z,1.85
2018-05-07T15:59:09.127Z,1.80
2018-05-07T16:01:36.797Z,1.95
2018-05-07T16:04:04.249Z,1.57
2018-05-07T16:06:31.582Z,1.80
2018-05-07T16:08:59.175Z,1.80
2018-05-07T16:11:26.511Z,2.00
2018-05-07T16:13:53.871Z,1.83
2018-05-07T16:16:21.311Z,2.00
2018-05-07T16:18:48.647Z,1.80
2018-05-07T16:21:16.205Z,1.70
2018-05-07T16:23:43.564Z,1.73
2018-05-07T16:26:11.261Z,1.70
2018-05-07T16:28:38.593Z,1.80
2018-05-07T16:31:06.123Z,1.80
2018-05-07T16:33:33.451Z,1.90
2018-05-07T16:36:00.836Z,1.80
2018-05-07T16:38:28.283Z,2.00
2018-05-07T16:40:55.623Z,1.98
2018-05-07T16:43:22.923Z,2.17
2018-05-07T16:45:50.521Z,1.80
2018-05-07T16:48:18.089Z,1.70
2018-05-07T16:50:45.443Z,1.70
2018-05-07T16:53:13.987Z,1.87
2018-05-07T16:55:41.730Z,1.70
2018-05-07T16:58:09.064Z,1.77
2018-05-07T17:00:36.703Z,2.03
2018-05-07T17:03:04.257Z,2.07
2018-05-07T17:05:31.639Z,1.90
2018-05-07T17:07:58.946Z,1.70
2018-05-07T17:10:26.521Z,1.80
2018-05-07T17:12:53.846Z,2.00
2018-05-07T17:15:21.160Z,1.90
2018-05-07T17:17:48.480Z,2.00
2018-05-07T17:20:15.830Z,2.10
2018-05-07T17:22:43.135Z,1.90
2018-05-07T17:25:10.450Z,2.30
2018-05-07T17:27:37.795Z,2.28
2018-05-07T17:30:05.192Z,1.90
2018-05-07T17:32:32.527Z,2.30
2018-05-07T17:34:59.880Z,1.92
2018-05-07T17:37:27.220Z,2.40
2018-05-07T17:39:54.530Z,1.90
2018-05-07T17:42:21.892Z,2.00
2018-05-07T17:44:55.010Z,1.80
2018-05-07T17:47:28.280Z,2.00
2018-05-07T17:49:55.577Z,2.12
2018-05-07T17:52:22.935Z,2.20
2018-05-07T17:54:50.280Z,2.00
2018-05-07T17:57:17.952Z,2.20
2018-05-07T17:59:45.314Z,2.00
2018-05-07T18:02:12.655Z,2.00
2018-05-07T18:04:39.980Z,2.00
2018-05-07T18:07:07.323Z,2.47
2018-05-07T18:09:34.651Z,2.30
2018-05-07T18:12:02.286Z,2.10
2018-05-07T18:14:29.619Z,2.30
2018-05-07T18:16:56.971Z,4.45
2018-05-07T18:19:24.319Z,6.78
2018-05-07T18:21:51.622Z,3.80
2018-05-07T18:24:18.965Z,6.32
2018-05-07T18:26:46.302Z,5.00
2018-05-07T18:29:13.634Z,6.07
2018-05-07T18:31:41.061Z,4.30
2018-05-07T18:34:08.334Z,4.40
2018-05-07T18:36:35.667Z,3.10
2018-05-07T18:39:03.019Z,2.90
2018-05-07T18:41:30.375Z,3.00
2018-05-07T18:43:57.713Z,2.50
2018-05-07T18:46:25.023Z,2.40
2018-05-07T18:48:52.609Z,2.50
2018-05-07T18:51:19.915Z,2.42
2018-05-07T18:53:47.253Z,5.35
2018-05-07T18:56:14.615Z,2.60
2018-05-07T18:58:41.921Z,2.60
2018-05-07T19:01:09.283Z,3.70
2018-05-07T19:03:36.603Z,2.70
2018-05-07T19:06:03.948Z,2.90
2018-05-07T19:08:31.306Z,2.95
2018-05-07T19:10:58.915Z,3.67
2018-05-07T19:13:26.292Z,3.58
2018-05-07T19:15:53.627Z,3.33
2018-05-07T19:18:20.983Z,2.90
2018-05-07T19:20:48.317Z,2.67
2018-05-07T19:23:15.647Z,3.30
2018-05-07T19:25:43.255Z,3.25
2018-05-07T19:28:10.582Z,2.80
2018-05-07T19:30:37.926Z,2.70
2018-05-07T19:33:05.294Z,2.80
2018-05-07T19:35:32.873Z,2.58
2018-05-07T19:38:00.219Z,2.62
2018-05-07T19:40:27.547Z,2.90
2018-05-07T19:42:55.150Z,3.10
2018-05-07T19:45:22.710Z,2.70
2018-05-07T19:47:50.045Z,3.08
2018-05-07T19:50:17.731Z,2.80
2018-05-07T19:52:45.058Z,3.20
2018-05-07T19:55:12.644Z,2.70
2018-05-07T19:57:39.958Z,2.53
2018-05-07T20:00:07.293Z,2.80
2018-05-07T20:02:34.875Z,2.50
2018-05-07T20:05:02.173Z,2.70
2018-05-07T20:07:29.477Z,2.70
2018-05-07T20:09:57.080Z,3.10
2018-05-07T20:12:24.394Z,3.00
2018-05-07T20:14:51.758Z,2.92
2018-05-07T20:17:19.056Z,2.53
2018-05-07T20:19:46.392Z,2.80
2018-05-07T20:22:13.719Z,2.72
2018-05-07T20:24:41.055Z,3.30
2018-05-07T20:27:08.399Z,2.80
2018-05-07T20:29:35.695Z,2.83
2018-05-07T20:32:02.994Z,3.00
2018-05-07T20:34:30.366Z,3.37
2018-05-07T20:36:57.666Z,3.05
2018-05-07T20:39:25.019Z,3.25
2018-05-07T20:41:52.343Z,3.20
2018-05-07T20:44:19.701Z,2.80
2018-05-07T20:46:47.307Z,2.97
2018-05-07T20:49:14.701Z,2.83
2018-05-07T20:51:42.072Z,3.50
2018-05-07T20:54:09.399Z,3.33
2018-05-07T20:56:36.732Z,3.20
2018-05-07T20:59:04.091Z,3.10
2018-05-07T21:01:31.610Z,3.40
2018-05-07T21:03:58.766Z,3.10
2018-05-07T21:06:26.102Z,2.80
2018-05-07T21:08:53.432Z,3.05
2018-05-07T21:11:21.058Z,3.40
2018-05-07T21:13:48.382Z,2.70
2018-05-07T21:16:15.740Z,2.97
2018-05-07T21:18:43.350Z,2.67
2018-05-07T21:21:10.700Z,2.80
2018-05-07T21:23:38.060Z,2.73
2018-05-07T21:26:05.369Z,2.70
2018-05-07T21:28:32.710Z,2.70
2018-05-07T21:31:00.315Z,2.80
2018-05-07T21:33:27.659Z,3.10
2018-05-07T21:35:54.969Z,3.17
2018-05-07T21:38:22.307Z,3.00
2018-05-07T21:40:49.665Z,2.60
2018-05-07T21:43:16.969Z,2.80
2018-05-07T21:45:44.282Z,2.90
2018-05-07T21:48:11.598Z,2.90
2018-05-07T21:50:39.288Z,2.60
2018-05-07T21:53:06.811Z,2.90
2018-05-07T21:55:34.183Z,2.90
2018-05-07T21:58:01.839Z,2.90
2018-05-07T22:00:29.226Z,3.03
2018-05-07T22:02:56.578Z,3.10
2018-05-07T22:05:24.204Z,3.10
2018-05-07T22:07:52.007Z,2.97
2018-05-07T22:10:19.632Z,2.90
2018-05-07T22:12:47.299Z,2.60
2018-05-07T22:15:14.622Z,2.80
2018-05-07T22:17:41.972Z,2.90
2018-05-07T22:20:09.565Z,2.50
2018-05-07T22:22:36.896Z,2.70
2018-05-07T22:25:04.582Z,2.77
2018-05-07T22:27:32.142Z,2.80
2018-05-07T22:29:59.474Z,2.83
2018-05-07T22:32:26.781Z,2.40
2018-05-07T22:34:54.105Z,2.80
2018-05-07T22:37:21.424Z,2.67
2018-05-07T22:39:49.098Z,2.60
2018-05-07T22:42:16.383Z,2.70
2018-05-07T22:44:44.039Z,2.60
2018-05-07T22:47:11.598Z,2.40
2018-05-07T22:49:38.991Z,2.70
2018-05-07T22:52:06.576Z,2.85
2018-05-07T22:54:33.829Z,2.65
2018-05-07T22:57:01.159Z,3.00
2018-05-07T22:59:28.786Z,2.70
2018-05-07T23:01:56.343Z,2.67
2018-05-07T23:04:23.641Z,2.70
2018-05-07T23:06:51.268Z,2.70
2018-05-07T23:09:18.931Z,2.42
2018-05-07T23:11:46.261Z,2.60
2018-05-07T23:14:13.623Z,2.15
2018-05-07T23:16:40.978Z,2.47
2018-05-07T23:19:08.319Z,2.37
2018-05-07T23:21:35.646Z,2.92
2018-05-07T23:24:02.991Z,2.40
2018-05-07T23:26:30.609Z,2.28
2018-05-07T23:28:58.273Z,2.40
2018-05-07T23:31:25.573Z,2.40
2018-05-07T23:33:52.883Z,2.30
2018-05-07T23:36:20.468Z,2.10
2018-05-07T23:38:47.777Z,2.30
2018-05-07T23:41:15.359Z,2.10
2018-05-07T23:43:42.691Z,2.10
2018-05-07T23:46:10.024Z,2.20
2018-05-07T23:48:37.631Z,2.40
2018-05-07T23:51:05.292Z,2.15
2018-05-07T23:53:32.854Z,2.08
2018-05-07T23:56:00.519Z,2.03
2018-05-07T23:58:28.070Z,2.00
